createdAt,value
2022-09-30T10:33:48.442Z,95070.09
2022-09-30T10:36:21.404Z,95061.13
2022-09-30T10:39:04.140Z,95070.25
2022-09-30T10:41:39.605Z,95064.78
2022-09-30T10:44:17.709Z,95075.78
2022-09-30T10:46:50.961Z,95070.19
2022-09-30T10:49:30.602Z,95073.16
2022-09-30T10:52:02.530Z,95065.44
2022-09-30T10:54:55.221Z,95070.69
2022-09-30T10:57:28.779Z,95067.97
2022-09-30T11:00:05.607Z,95071.06
2022-09-30T11:02:40.970Z,95070.28
2022-09-30T11:05:19.330Z,95066.78
2022-09-30T11:07:55.005Z,95064.41
2022-09-30T11:10:36.043Z,95070.19
2022-09-30T11:13:12.267Z,95070.22
2022-09-30T11:15:46.363Z,95074.44
2022-09-30T11:18:21.272Z,95082.28
2022-09-30T11:20:56.529Z,95081.97
2022-09-30T11:23:30.404Z,95085.69
2022-09-30T11:26:04.507Z,95086.63
2022-09-30T11:28:54.125Z,95095.03
2022-09-30T11:31:31.460Z,95099.34
2022-09-30T11:34:29.823Z,95103.56
2022-09-30T11:37:10.292Z,95096.25
2022-09-30T11:40:02.098Z,95093.34
2022-09-30T11:42:39.199Z,95089.56
2022-09-30T11:45:30.777Z,95093.13
2022-09-30T11:48:22.729Z,95089.63
2022-09-30T11:51:01.353Z,95097.00
2022-09-30T11:53:48.781Z,95093.28
2022-09-30T11:56:33.889Z,95089.59
2022-09-30T11:59:07.567Z,95086.44
2022-09-30T12:01:43.222Z,95074.34
2022-09-30T12:04:16.995Z,95087.31
2022-09-30T12:06:51.938Z,95093.75
2022-09-30T12:09:26.885Z,95087.97
2022-09-30T12:11:59.812Z,95090.88
2022-09-30T12:14:35.215Z,95097.00
2022-09-30T12:17:12.216Z,95083.44
2022-09-30T12:19:46.937Z,95092.25
2022-09-30T12:22:20.592Z,95082.69
2022-09-30T12:24:51.079Z,95085.91
2022-09-30T12:27:25.029Z,95074.88
2022-09-30T12:30:17.841Z,95072.56
2022-09-30T12:33:23.243Z,95076.00
2022-09-30T12:36:23.390Z,95076.44
2022-09-30T12:39:38.529Z,95077.34
2022-09-30T12:42:27.611Z,95076.91
2022-09-30T12:45:35.434Z,95079.44
2022-09-30T12:48:07.897Z,95076.81
2022-09-30T12:50:43.193Z,95083.94
2022-09-30T12:53:22.128Z,95073.75
2022-09-30T12:55:52.448Z,95073.34
2022-09-30T12:58:30.856Z,95079.66
2022-09-30T13:01:05.642Z,95082.06
2022-09-30T13:03:53.489Z,95088.56
2022-09-30T13:06:25.194Z,95088.16
2022-09-30T13:09:22.754Z,95086.94
2022-09-30T13:12:30.374Z,95083.53
2022-09-30T13:15:43.509Z,95090.75
2022-09-30T13:19:01.924Z,95095.56
2022-09-30T13:21:32.221Z,95086.84
2022-09-30T13:24:02.184Z,95084.84
2022-09-30T13:26:49.530Z,95082.75
2022-09-30T13:29:50.325Z,95080.94
2022-09-30T13:32:37.250Z,95074.91
2022-09-30T13:35:37.501Z,95080.81
2022-09-30T13:38:20.117Z,95076.72
2022-09-30T13:41:07.245Z,95077.91
2022-09-30T13:43:42.093Z,95082.94
2022-09-30T13:46:23.684Z,95078.25
2022-09-30T13:48:58.584Z,95074.03
2022-09-30T13:51:31.862Z,95078.34
2022-09-30T13:54:07.314Z,95076.44
2022-09-30T13:56:40.986Z,95075.13
2022-09-30T13:59:33.452Z,95077.84
2022-09-30T14:02:38.286Z,95069.22
2022-09-30T14:05:36.589Z,95077.53
2022-09-30T14:08:47.022Z,95070.72
2022-09-30T14:11:28.052Z,95077.50
2022-09-30T14:14:14.792Z,95074.25
2022-09-30T14:17:15.096Z,95072.31
2022-09-30T14:19:58.317Z,95067.75
2022-09-30T14:22:30.107Z,95064.25
2022-09-30T14:24:59.582Z,95072.75
2022-09-30T14:27:46.480Z,95068.69
2022-09-30T14:30:20.071Z,95069.38
2022-09-30T14:32:52.077Z,95066.97
2022-09-30T14:35:24.465Z,95073.72
2022-09-30T14:37:58.156Z,95077.13
2022-09-30T14:40:30.486Z,95078.34
2022-09-30T14:43:02.822Z,95082.41
2022-09-30T14:45:35.355Z,95094.84
2022-09-30T14:48:10.193Z,95098.88
2022-09-30T14:50:51.068Z,95093.94
2022-09-30T14:53:30.745Z,95098.38
2022-09-30T14:56:00.632Z,95099.81
2022-09-30T14:58:32.439Z,95095.72
2022-09-30T15:01:08.511Z,95090.34
2022-09-30T15:03:40.590Z,95090.84
2022-09-30T15:06:19.984Z,95099.47
2022-09-30T15:08:52.546Z,95108.59
2022-09-30T15:11:25.991Z,95116.00
2022-09-30T15:14:00.061Z,95119.00
2022-09-30T15:16:31.765Z,95117.00
2022-09-30T15:19:02.445Z,95117.09
2022-09-30T15:21:32.878Z,95120.69
2022-09-30T15:24:03.809Z,95122.88
2022-09-30T15:26:34.109Z,95111.28
2022-09-30T15:29:05.476Z,95114.56
2022-09-30T15:31:35.687Z,95115.16
2022-09-30T15:34:08.172Z,95117.69
2022-09-30T15:36:38.082Z,95127.78
2022-09-30T15:39:21.893Z,95128.16
2022-09-30T15:41:52.465Z,95122.03
2022-09-30T15:44:38.662Z,95127.31
2022-09-30T15:47:09.389Z,95131.97
2022-09-30T15:49:49.898Z,95140.75
2022-09-30T15:52:33.394Z,95141.91
2022-09-30T15:55:36.990Z,95145.50
2022-09-30T15:58:06.187Z,95143.19
2022-09-30T16:00:39.100Z,95144.06
2022-09-30T16:03:25.052Z,95148.44
2022-09-30T16:05:54.840Z,95146.31
2022-09-30T16:08:26.777Z,95145.59
2022-09-30T16:10:59.564Z,95157.25
2022-09-30T16:13:31.822Z,95161.38
2022-09-30T16:16:02.107Z,95163.63
2022-09-30T16:18:34.785Z,95169.38
2022-09-30T16:21:06.300Z,95167.84
2022-09-30T16:23:38.513Z,95165.00
2022-09-30T16:26:24.494Z,95172.63
2022-09-30T16:28:53.879Z,95165.97
2022-09-30T16:31:23.603Z,95164.19
2022-09-30T16:33:53.051Z,95173.19
2022-09-30T16:36:22.218Z,95176.50
2022-09-30T16:38:51.426Z,95179.53
2022-09-30T16:41:21.953Z,95181.75
2022-09-30T16:43:51.270Z,95186.97
2022-09-30T16:46:20.488Z,95182.72
2022-09-30T16:48:49.621Z,95183.03
2022-09-30T16:51:18.773Z,95186.06
2022-09-30T16:53:48.093Z,95189.63
2022-09-30T16:56:19.410Z,95196.94
2022-09-30T16:58:49.951Z,95197.50
2022-09-30T17:01:21.195Z,95188.94
2022-09-30T17:03:51.140Z,95194.66
2022-09-30T17:06:22.225Z,95197.41
2022-09-30T17:08:53.475Z,95197.16
2022-09-30T17:11:27.832Z,95198.00
2022-09-30T17:13:58.421Z,95196.16
2022-09-30T17:16:28.143Z,95201.28
2022-09-30T17:18:57.501Z,95204.81
2022-09-30T17:21:28.172Z,95214.78
2022-09-30T17:23:57.887Z,95210.00
2022-09-30T17:26:28.235Z,95220.50
2022-09-30T17:29:14.611Z,95214.88
2022-09-30T17:31:48.036Z,95217.31
2022-09-30T17:34:18.116Z,95223.25
2022-09-30T17:36:47.262Z,95222.72
2022-09-30T17:39:16.617Z,95224.09
2022-09-30T17:42:03.454Z,95228.66
2022-09-30T17:44:33.980Z,95233.00
2022-09-30T17:47:03.124Z,95227.88
2022-09-30T17:49:34.278Z,95226.56
2022-09-30T17:52:04.105Z,95221.75
2022-09-30T17:54:34.424Z,95220.41
2022-09-30T17:57:03.639Z,95234.69
2022-09-30T17:59:34.475Z,95229.31
2022-09-30T18:02:03.798Z,95220.69
2022-09-30T18:04:35.404Z,95225.28
2022-09-30T18:07:04.693Z,95236.84
2022-09-30T18:09:37.155Z,95245.75
2022-09-30T18:12:07.318Z,95247.63
2022-09-30T18:14:38.338Z,95257.59
2022-09-30T18:17:07.917Z,95249.00
2022-09-30T18:19:37.261Z,95259.75
2022-09-30T18:22:06.381Z,95245.22
2022-09-30T18:24:53.394Z,95257.88
2022-09-30T18:27:24.098Z,95252.22
2022-09-30T18:29:54.712Z,95258.41
2022-09-30T18:32:23.862Z,95262.97
2022-09-30T18:34:53.084Z,95262.97
2022-09-30T18:37:22.967Z,95258.69
2022-09-30T18:39:52.530Z,95262.19
2022-09-30T18:42:21.641Z,95262.19
2022-09-30T18:44:50.885Z,95258.69
2022-09-30T18:47:22.635Z,95254.38
2022-09-30T18:49:52.087Z,95249.00
2022-09-30T18:52:21.506Z,95252.75
2022-09-30T18:54:51.229Z,95261.38
2022-09-30T18:57:21.584Z,95260.56
2022-09-30T18:59:51.245Z,95251.97
2022-09-30T19:02:22.027Z,95253.56
2022-09-30T19:04:51.592Z,95258.16
2022-09-30T19:07:22.132Z,95255.44
2022-09-30T19:09:51.741Z,95241.47
2022-09-30T19:12:22.623Z,95251.97
2022-09-30T19:14:52.228Z,95253.63
2022-09-30T19:17:26.402Z,95260.63
2022-09-30T19:19:56.034Z,95257.16
2022-09-30T19:22:25.979Z,95264.16
2022-09-30T19:24:55.553Z,95266.84
2022-09-30T19:27:27.235Z,95264.69
2022-09-30T19:29:59.346Z,95260.94
2022-09-30T19:32:34.497Z,95263.06
2022-09-30T19:35:06.836Z,95260.09
2022-09-30T19:37:37.244Z,95257.69
2022-09-30T19:40:20.656Z,95257.69
2022-09-30T19:42:51.917Z,95260.69
2022-09-30T19:45:25.716Z,95259.63
2022-09-30T19:47:58.478Z,95256.94
2022-09-30T19:50:28.169Z,95249.13
2022-09-30T19:52:57.908Z,95252.09
2022-09-30T19:55:28.484Z,95260.44
2022-09-30T19:57:58.467Z,95251.28
2022-09-30T20:00:27.613Z,95256.66
2022-09-30T20:02:59.692Z,95254.50
2022-09-30T20:05:30.443Z,95253.44
2022-09-30T20:08:00.282Z,95253.16
2022-09-30T20:10:29.941Z,95251.28
2022-09-30T20:12:59.573Z,95249.94
2022-09-30T20:15:46.533Z,95245.09
2022-09-30T20:18:17.089Z,95250.75
2022-09-30T20:20:47.016Z,95255.59
2022-09-30T20:23:16.392Z,95244.59
2022-09-30T20:25:45.991Z,95248.88
2022-09-30T20:28:15.367Z,95250.75
2022-09-30T20:30:45.372Z,95249.41
2022-09-30T20:33:18.982Z,95249.69
2022-09-30T20:35:49.041Z,95253.47
2022-09-30T20:38:24.781Z,95251.03
2022-09-30T20:40:58.271Z,95249.16
2022-09-30T20:43:30.047Z,95257.75
2022-09-30T20:46:02.570Z,95259.13
2022-09-30T20:48:34.699Z,95257.00
2022-09-30T20:51:06.376Z,95262.09
2022-09-30T20:53:39.719Z,95265.59
2022-09-30T20:56:10.596Z,95267.22
2022-09-30T20:58:40.555Z,95272.06
2022-09-30T21:01:13.833Z,95263.19
2022-09-30T21:03:44.816Z,95271.00
2022-09-30T21:06:14.088Z,95270.72
2022-09-30T21:08:43.529Z,95277.44
2022-09-30T21:11:13.362Z,95274.50
2022-09-30T21:13:45.028Z,95275.03
2022-09-30T21:16:17.843Z,95276.63
2022-09-30T21:18:50.638Z,95289.22
2022-09-30T21:21:21.215Z,95286.00
2022-09-30T21:23:53.571Z,95286.22
2022-09-30T21:26:22.799Z,95283.28
2022-09-30T21:28:52.009Z,95269.31
2022-09-30T21:31:22.964Z,95258.03
2022-09-30T21:33:55.235Z,95261.22
2022-09-30T21:36:25.106Z,95253.41
2022-09-30T21:38:54.755Z,95261.72
2022-09-30T21:41:23.908Z,95263.03
2022-09-30T21:43:53.065Z,95260.81
2022-09-30T21:46:23.221Z,95260.53
2022-09-30T21:49:05.378Z,95264.50
2022-09-30T21:51:36.376Z,95265.81
2022-09-30T21:54:05.946Z,95274.59
2022-09-30T21:56:35.083Z,95281.28
2022-09-30T21:59:04.716Z,95271.28
2022-09-30T22:01:34.701Z,95284.66
2022-09-30T22:04:06.676Z,95271.22
2022-09-30T22:06:36.096Z,95280.84
2022-09-30T22:09:05.632Z,95276.28
2022-09-30T22:11:35.624Z,95278.41
2022-09-30T22:14:05.129Z,95275.16
2022-09-30T22:16:35.729Z,95290.69
2022-09-30T22:19:08.948Z,95285.56
2022-09-30T22:21:38.750Z,95288.25
2022-09-30T22:24:09.609Z,95290.38
2022-09-30T22:26:39.901Z,95293.31
2022-09-30T22:29:12.611Z,95289.03
2022-09-30T22:31:41.918Z,95287.69
2022-09-30T22:34:32.701Z,95279.97
2022-09-30T22:37:19.554Z,95295.78
2022-09-30T22:39:48.682Z,95296.88
2022-09-30T22:42:18.091Z,95311.91
2022-09-30T22:44:47.917Z,95315.88
2022-09-30T22:47:17.443Z,95321.25
2022-09-30T22:49:47.930Z,95329.53
2022-09-30T22:52:17.166Z,95331.69
2022-09-30T22:54:46.295Z,95328.31
2022-09-30T22:57:16.214Z,95332.69
2022-09-30T22:59:47.579Z,95330.84
2022-09-30T23:02:16.818Z,95330.09
2022-09-30T23:04:47.327Z,95323.97
2022-09-30T23:07:16.436Z,95330.72
2022-09-30T23:09:46.042Z,95339.06
2022-09-30T23:12:15.157Z,95343.09
2022-09-30T23:14:44.864Z,95348.19
2022-09-30T23:17:16.796Z,95346.03
2022-09-30T23:19:47.346Z,95354.88
2022-09-30T23:22:18.623Z,95357.84
2022-09-30T23:24:47.753Z,95367.78
2022-09-30T23:27:16.877Z,95374.75
2022-09-30T23:29:46.004Z,95378.50
2022-09-30T23:32:15.183Z,95371.50
2022-09-30T23:34:44.347Z,95381.44
2022-09-30T23:37:15.146Z,95380.63
2022-09-30T23:39:44.258Z,95385.16
2022-09-30T23:42:13.409Z,95378.75
2022-09-30T23:44:42.518Z,95376.63
2022-09-30T23:47:21.405Z,95381.16
2022-09-30T23:49:50.879Z,95381.44
2022-09-30T23:52:21.476Z,95376.63
2022-09-30T23:54:50.594Z,95375.56
2022-09-30T23:57:19.763Z,95374.22
2022-09-30T23:59:48.901Z,95383.09
